createdAt,value
2022-12-31T00:00:20.798Z,1.77
2022-12-31T00:01:52.478Z,1.33
2022-12-31T00:03:24.278Z,1.70
2022-12-31T00:04:55.890Z,2.00
2022-12-31T00:06:35.207Z,1.90
2022-12-31T00:08:06.955Z,1.63
2022-12-31T00:09:38.843Z,1.67
2022-12-31T00:11:10.770Z,1.27
2022-12-31T00:12:42.382Z,1.40
2022-12-31T00:14:14.394Z,1.65
2022-12-31T00:15:46.014Z,1.58
2022-12-31T00:17:17.569Z,2.05
2022-12-31T00:18:52.527Z,1.75
2022-12-31T00:20:24.149Z,2.00
2022-12-31T00:21:55.775Z,2.03
2022-12-31T00:23:27.505Z,1.95
2022-12-31T00:24:59.198Z,1.45
2022-12-31T00:26:33.715Z,1.63
2022-12-31T00:28:05.621Z,1.73
2022-12-31T00:29:37.239Z,1.20
2022-12-31T00:31:12.388Z,1.83
2022-12-31T00:32:44.068Z,2.13
2022-12-31T00:34:15.775Z,1.77
2022-12-31T00:35:47.400Z,2.15
2022-12-31T00:37:18.963Z,1.63
2022-12-31T00:38:52.272Z,3.53
2022-12-31T00:40:23.857Z,1.95
2022-12-31T00:41:55.432Z,1.50
2022-12-31T00:43:27.082Z,1.92
2022-12-31T00:44:58.787Z,1.63
2022-12-31T00:46:33.538Z,1.27
2022-12-31T00:48:05.495Z,2.45
2022-12-31T00:49:37.112Z,1.40
2022-12-31T00:51:11.750Z,2.33
2022-12-31T00:52:43.299Z,1.38
2022-12-31T00:54:15.144Z,1.90
2022-12-31T00:55:46.756Z,1.90
2022-12-31T00:57:18.347Z,1.85
2022-12-31T00:58:51.033Z,2.40
2022-12-31T01:00:22.643Z,2.78
2022-12-31T01:01:54.284Z,1.80
2022-12-31T01:03:26.088Z,1.20
2022-12-31T01:04:57.627Z,1.83
2022-12-31T01:06:29.398Z,1.77
2022-12-31T01:08:01.237Z,1.45
2022-12-31T01:09:33.014Z,1.58
2022-12-31T01:11:23.988Z,2.65
2022-12-31T01:12:55.621Z,1.77
2022-12-31T01:14:27.287Z,1.65
2022-12-31T01:16:07.355Z,1.92
2022-12-31T01:17:38.969Z,1.63
2022-12-31T01:19:13.433Z,1.17
2022-12-31T01:20:45.056Z,3.35
2022-12-31T01:22:16.712Z,1.58
2022-12-31T01:23:48.929Z,2.60
2022-12-31T01:25:20.916Z,1.55
2022-12-31T01:26:52.632Z,1.50
2022-12-31T01:28:24.260Z,2.40
2022-12-31T01:29:55.909Z,2.33
2022-12-31T01:31:28.220Z,1.95
2022-12-31T01:32:59.952Z,1.88
2022-12-31T01:34:31.616Z,1.88
2022-12-31T01:36:09.878Z,1.58
2022-12-31T01:37:41.407Z,1.92
2022-12-31T01:39:13.256Z,1.65
2022-12-31T01:40:44.925Z,1.58
2022-12-31T01:42:16.521Z,2.15
2022-12-31T01:43:54.440Z,2.20
2022-12-31T01:45:26.575Z,2.47
2022-12-31T01:47:02.316Z,1.45
2022-12-31T01:48:33.975Z,1.70
2022-12-31T01:50:22.827Z,2.15
2022-12-31T01:52:02.959Z,2.13
2022-12-31T01:53:37.261Z,2.35
2022-12-31T01:55:55.685Z,2.80
2022-12-31T01:57:27.947Z,2.50
2022-12-31T01:58:59.944Z,2.22
2022-12-31T02:00:32.827Z,1.58
2022-12-31T02:02:05.578Z,3.17
2022-12-31T02:03:38.557Z,1.90
2022-12-31T02:05:23.220Z,2.53
2022-12-31T02:07:03.642Z,2.50
2022-12-31T02:08:41.980Z,1.35
2022-12-31T02:10:14.061Z,2.33
2022-12-31T02:11:45.705Z,2.03
2022-12-31T02:13:17.371Z,2.47
2022-12-31T02:14:53.789Z,1.63
2022-12-31T02:16:46.760Z,1.73
2022-12-31T02:18:30.474Z,2.13
2022-12-31T02:20:17.304Z,3.05
2022-12-31T02:22:03.451Z,1.83
2022-12-31T02:24:01.217Z,1.95
2022-12-31T02:25:48.121Z,2.00
2022-12-31T02:27:46.791Z,2.00
2022-12-31T02:29:27.185Z,1.77
2022-12-31T02:31:12.030Z,1.90
2022-12-31T02:33:10.281Z,1.67
2022-12-31T02:34:52.807Z,1.95
2022-12-31T02:36:30.631Z,1.80
2022-12-31T02:38:10.659Z,1.90
2022-12-31T02:39:43.332Z,2.20
2022-12-31T02:41:37.611Z,1.77
2022-12-31T02:43:09.198Z,2.30
2022-12-31T02:44:43.321Z,2.05
2022-12-31T02:46:28.927Z,1.92
2022-12-31T02:48:22.048Z,2.22
2022-12-31T02:50:29.299Z,1.65
2022-12-31T02:52:10.728Z,2.72
2022-12-31T02:54:17.409Z,1.58
2022-12-31T02:55:51.895Z,1.77
2022-12-31T02:57:30.804Z,1.67
2022-12-31T02:59:32.731Z,3.63
2022-12-31T03:01:23.301Z,1.48
2022-12-31T03:02:56.183Z,3.00
2022-12-31T03:04:35.844Z,2.00
2022-12-31T03:06:09.537Z,2.33
2022-12-31T03:07:42.795Z,2.72
2022-12-31T03:09:14.422Z,1.73
2022-12-31T03:10:45.940Z,3.17
2022-12-31T03:12:38.708Z,1.73
2022-12-31T03:14:11.335Z,1.95
2022-12-31T03:15:43.027Z,3.70
2022-12-31T03:17:14.974Z,1.92
2022-12-31T03:19:05.055Z,2.25
2022-12-31T03:21:01.528Z,2.10
2022-12-31T03:22:36.345Z,1.73
2022-12-31T03:24:26.370Z,1.75
2022-12-31T03:25:59.108Z,1.73
2022-12-31T03:27:30.667Z,2.88
2022-12-31T03:29:02.260Z,1.50
2022-12-31T03:30:35.440Z,1.60
2022-12-31T03:32:09.338Z,2.15
2022-12-31T03:33:41.846Z,1.70
2022-12-31T03:35:14.899Z,1.60
2022-12-31T03:36:46.523Z,4.13
2022-12-31T03:38:19.045Z,2.13
2022-12-31T03:39:50.631Z,1.52
2022-12-31T03:41:22.214Z,2.40
2022-12-31T03:42:54.131Z,1.83
2022-12-31T03:44:25.659Z,1.73
2022-12-31T03:45:59.760Z,2.13
2022-12-31T03:47:31.760Z,3.83
2022-12-31T03:49:03.391Z,2.42
2022-12-31T03:50:35.641Z,2.05
2022-12-31T03:52:08.609Z,1.92
2022-12-31T03:53:40.166Z,2.75
2022-12-31T03:55:12.824Z,2.35
2022-12-31T03:56:44.402Z,1.90
2022-12-31T03:58:15.968Z,2.72
2022-12-31T03:59:47.623Z,2.20
2022-12-31T04:01:19.640Z,2.10
2022-12-31T04:02:51.496Z,2.05
2022-12-31T04:04:23.169Z,2.47
2022-12-31T04:05:55.609Z,2.83
2022-12-31T04:07:27.264Z,2.72
2022-12-31T04:08:58.836Z,2.88
2022-12-31T04:10:30.414Z,2.40
2022-12-31T04:12:02.002Z,3.50
2022-12-31T04:13:33.598Z,1.75
2022-12-31T04:15:07.125Z,2.45
2022-12-31T04:16:38.898Z,1.45
2022-12-31T04:18:10.555Z,2.80
2022-12-31T04:19:42.192Z,1.85
2022-12-31T04:21:13.821Z,1.80
2022-12-31T04:22:45.492Z,3.42
2022-12-31T04:24:17.126Z,1.20
2022-12-31T04:25:49.141Z,3.17
2022-12-31T04:27:20.717Z,1.67
2022-12-31T04:28:52.319Z,1.83
2022-12-31T04:30:23.904Z,2.70
2022-12-31T04:31:55.630Z,1.73
2022-12-31T04:33:27.199Z,1.48
2022-12-31T04:34:58.753Z,1.52
2022-12-31T04:36:30.611Z,1.60
2022-12-31T04:38:02.242Z,2.60
2022-12-31T04:39:33.791Z,1.35
2022-12-31T04:41:18.138Z,2.88
2022-12-31T04:42:49.761Z,1.90
2022-12-31T04:44:21.523Z,1.23
2022-12-31T04:45:53.282Z,2.65
2022-12-31T04:47:25.020Z,2.67
2022-12-31T04:48:56.817Z,1.67
2022-12-31T04:50:28.382Z,1.83
2022-12-31T04:52:00.072Z,1.90
2022-12-31T04:53:32.535Z,1.48
2022-12-31T04:55:04.426Z,5.60
2022-12-31T04:56:38.940Z,3.55
2022-12-31T04:58:10.595Z,1.88
2022-12-31T04:59:42.156Z,2.38
2022-12-31T05:01:14.447Z,2.85
2022-12-31T05:02:46.370Z,1.80
2022-12-31T05:04:18.084Z,1.70
2022-12-31T05:05:50.157Z,2.30
2022-12-31T05:07:21.716Z,1.80
2022-12-31T05:08:53.323Z,2.30
2022-12-31T05:10:25.007Z,2.03
2022-12-31T05:11:56.721Z,2.22
2022-12-31T05:13:33.156Z,3.00
2022-12-31T05:15:05.615Z,2.25
2022-12-31T05:16:37.283Z,1.90
2022-12-31T05:18:09.232Z,1.98
2022-12-31T05:19:40.834Z,2.17
2022-12-31T05:21:20.245Z,1.75
2022-12-31T05:22:51.992Z,1.73
2022-12-31T05:24:23.618Z,1.83
2022-12-31T05:25:55.280Z,1.50
2022-12-31T05:27:28.174Z,2.65
2022-12-31T05:29:00.568Z,1.73
2022-12-31T05:30:32.169Z,1.38
2022-12-31T05:32:03.826Z,1.63
2022-12-31T05:33:35.816Z,2.63
2022-12-31T05:35:08.367Z,2.10
2022-12-31T05:36:40.003Z,1.75
2022-12-31T05:38:11.727Z,1.80
2022-12-31T05:39:43.361Z,2.53
2022-12-31T05:41:14.943Z,1.80
2022-12-31T05:42:46.577Z,1.95
2022-12-31T05:44:18.144Z,1.73
2022-12-31T05:45:49.762Z,1.85
2022-12-31T05:47:21.822Z,1.33
2022-12-31T05:48:53.409Z,2.47
2022-12-31T05:50:25.167Z,1.60
2022-12-31T05:52:00.843Z,1.52
2022-12-31T05:53:34.329Z,1.35
2022-12-31T05:55:06.283Z,1.88
2022-12-31T05:56:38.534Z,2.47
2022-12-31T05:58:10.158Z,1.55
2022-12-31T05:59:42.438Z,1.40
2022-12-31T06:01:14.017Z,1.77
2022-12-31T06:02:45.760Z,1.83
2022-12-31T06:04:17.649Z,1.50
2022-12-31T06:05:49.242Z,1.80
2022-12-31T06:07:21.013Z,1.52
2022-12-31T06:08:52.632Z,1.50
2022-12-31T06:10:24.264Z,2.05
2022-12-31T06:11:55.790Z,1.55
2022-12-31T06:13:27.727Z,2.20
2022-12-31T06:14:59.454Z,1.95
2022-12-31T06:16:31.049Z,2.72
2022-12-31T06:18:05.123Z,1.83
2022-12-31T06:19:36.727Z,1.98
2022-12-31T06:21:08.372Z,1.42
2022-12-31T06:22:40.082Z,1.20
2022-12-31T06:24:12.060Z,1.70
2022-12-31T06:25:43.690Z,1.95
2022-12-31T06:27:15.341Z,2.50
2022-12-31T06:28:47.151Z,4.15
2022-12-31T06:30:18.788Z,1.75
2022-12-31T06:31:50.396Z,2.22
2022-12-31T06:33:22.733Z,4.05
2022-12-31T06:34:54.477Z,1.67
2022-12-31T06:36:27.065Z,2.42
2022-12-31T06:37:58.679Z,3.22
2022-12-31T06:39:30.285Z,2.58
2022-12-31T06:41:10.285Z,4.00
2022-12-31T06:42:42.667Z,2.50
2022-12-31T06:44:14.918Z,1.80
2022-12-31T06:45:46.502Z,1.67
2022-12-31T06:47:18.116Z,2.08
2022-12-31T06:48:49.811Z,1.73
2022-12-31T06:50:21.493Z,2.10
2022-12-31T06:51:53.085Z,1.52
2022-12-31T06:53:24.664Z,1.80
2022-12-31T06:54:56.481Z,1.85
2022-12-31T06:56:34.713Z,1.70
2022-12-31T06:58:09.457Z,1.38
2022-12-31T06:59:41.308Z,1.67
2022-12-31T07:01:31.185Z,3.33
2022-12-31T07:03:30.078Z,2.28
2022-12-31T07:05:24.085Z,1.35
2022-12-31T07:07:08.472Z,1.60
2022-12-31T07:08:54.919Z,1.80
2022-12-31T07:10:35.916Z,1.77
2022-12-31T07:12:33.909Z,2.00
2022-12-31T07:14:22.693Z,2.00
2022-12-31T07:16:06.222Z,2.40
2022-12-31T07:17:56.167Z,1.80
2022-12-31T07:19:44.416Z,2.85
2022-12-31T07:21:21.993Z,1.83
2022-12-31T07:22:54.967Z,2.55
2022-12-31T07:24:27.089Z,3.30
2022-12-31T07:26:07.391Z,1.67
2022-12-31T07:28:13.653Z,2.00
2022-12-31T07:30:01.394Z,2.55
2022-12-31T07:31:51.156Z,2.70
2022-12-31T07:33:32.811Z,1.80
2022-12-31T07:35:16.686Z,2.05
2022-12-31T07:36:51.028Z,2.47
2022-12-31T07:38:34.394Z,3.13
2022-12-31T07:40:11.323Z,4.80
2022-12-31T07:42:05.315Z,3.20
2022-12-31T07:43:55.492Z,3.53
2022-12-31T07:45:36.434Z,2.83
2022-12-31T07:47:21.422Z,2.83
2022-12-31T07:48:53.382Z,3.50
2022-12-31T07:50:25.414Z,4.63
2022-12-31T07:51:57.437Z,3.40
2022-12-31T07:53:29.327Z,3.75
2022-12-31T07:55:01.368Z,3.80
2022-12-31T07:56:33.275Z,4.40
2022-12-31T07:58:23.191Z,4.45
2022-12-31T08:00:13.275Z,3.55
2022-12-31T08:01:53.376Z,2.83
2022-12-31T08:03:55.218Z,2.40
2022-12-31T08:05:59.415Z,2.35
2022-12-31T08:07:31.048Z,3.17
2022-12-31T08:09:10.170Z,2.15
2022-12-31T08:10:49.928Z,2.63
2022-12-31T08:12:21.680Z,2.42
2022-12-31T08:13:56.216Z,2.30
2022-12-31T08:15:30.557Z,2.38
2022-12-31T08:17:02.820Z,2.50
2022-12-31T08:18:34.588Z,2.58
2022-12-31T08:20:07.030Z,2.70
2022-12-31T08:22:03.430Z,2.22
2022-12-31T08:23:55.557Z,2.15
2022-12-31T08:25:55.743Z,2.95
2022-12-31T08:27:54.999Z,3.28
2022-12-31T08:29:47.534Z,1.85
2022-12-31T08:31:27.427Z,1.88
2022-12-31T08:33:08.521Z,2.28
2022-12-31T08:35:06.203Z,3.67
2022-12-31T08:37:00.144Z,3.50
2022-12-31T08:38:53.047Z,2.95
2022-12-31T08:41:14.440Z,2.10
2022-12-31T08:42:45.951Z,3.28
2022-12-31T08:44:36.324Z,2.90
2022-12-31T08:46:23.296Z,2.20
2022-12-31T08:48:06.170Z,2.08
2022-12-31T08:49:37.956Z,2.17
2022-12-31T08:51:17.668Z,3.45
2022-12-31T08:52:49.517Z,4.85
2022-12-31T08:54:21.377Z,5.50
2022-12-31T08:56:01.354Z,2.25
2022-12-31T08:57:37.366Z,2.08
2022-12-31T08:59:36.714Z,1.80
2022-12-31T09:01:08.871Z,3.05
2022-12-31T09:03:07.621Z,2.08
2022-12-31T09:04:48.253Z,2.05
2022-12-31T09:06:46.973Z,2.20
2022-12-31T09:08:27.779Z,2.30
2022-12-31T09:10:37.888Z,2.22
2022-12-31T09:12:38.866Z,1.73
2022-12-31T09:14:19.285Z,4.55
2022-12-31T09:16:05.128Z,1.63
2022-12-31T09:17:44.939Z,3.42
2022-12-31T09:19:16.597Z,2.53
2022-12-31T09:20:48.413Z,3.03
2022-12-31T09:22:20.269Z,2.22
2022-12-31T09:23:52.090Z,2.10
2022-12-31T09:25:25.483Z,1.95
2022-12-31T09:27:21.240Z,1.98
2022-12-31T09:29:18.969Z,2.22
2022-12-31T09:31:01.734Z,2.83
2022-12-31T09:33:00.602Z,3.00
2022-12-31T09:34:56.602Z,2.25
2022-12-31T09:36:34.357Z,1.95
2022-12-31T09:38:30.854Z,1.73
2022-12-31T09:40:28.783Z,1.75
2022-12-31T09:42:37.306Z,3.10
2022-12-31T09:44:23.836Z,3.25
2022-12-31T09:46:52.487Z,2.58
2022-12-31T09:48:57.745Z,1.98
2022-12-31T09:50:37.784Z,2.65
2022-12-31T09:52:36.419Z,2.45
2022-12-31T09:54:16.953Z,2.45
2022-12-31T09:56:10.101Z,2.20
2022-12-31T09:57:58.330Z,2.83
2022-12-31T09:59:41.092Z,3.42
2022-12-31T10:01:50.474Z,3.38
2022-12-31T10:03:49.285Z,3.55
2022-12-31T10:05:48.365Z,2.85
2022-12-31T10:07:41.104Z,1.98
2022-12-31T10:09:31.013Z,2.83
2022-12-31T10:11:05.447Z,2.60
2022-12-31T10:12:54.980Z,1.75
2022-12-31T10:14:29.271Z,4.55
2022-12-31T10:16:05.899Z,3.53
2022-12-31T10:18:05.268Z,2.58
2022-12-31T10:19:57.968Z,1.95
2022-12-31T10:21:47.741Z,3.42
2022-12-31T10:23:37.997Z,2.47
2022-12-31T10:25:38.784Z,3.25
2022-12-31T10:27:21.284Z,2.35
2022-12-31T10:29:14.101Z,2.95
2022-12-31T10:31:20.930Z,2.38
2022-12-31T10:33:15.526Z,2.08
2022-12-31T10:34:54.811Z,2.40
2022-12-31T10:36:32.114Z,3.47
2022-12-31T10:38:03.620Z,2.53
2022-12-31T10:39:40.837Z,3.95
2022-12-31T10:41:45.658Z,3.55
2022-12-31T10:44:05.482Z,3.60
2022-12-31T10:45:58.660Z,3.85
2022-12-31T10:47:53.265Z,2.25
2022-12-31T10:49:52.277Z,4.38
2022-12-31T10:51:41.794Z,3.25
2022-12-31T10:53:22.444Z,3.30
2022-12-31T10:55:26.285Z,4.05
2022-12-31T10:57:16.585Z,3.92
2022-12-31T10:59:10.139Z,3.20
2022-12-31T11:00:50.498Z,2.90
2022-12-31T11:02:40.647Z,3.20
2022-12-31T11:04:42.779Z,2.97
2022-12-31T11:06:38.526Z,3.42
2022-12-31T11:08:47.448Z,2.97
2022-12-31T11:10:38.245Z,2.30
2022-12-31T11:12:24.596Z,4.20
2022-12-31T11:14:08.071Z,3.13
2022-12-31T11:15:54.234Z,2.88
2022-12-31T11:17:44.072Z,2.75
2022-12-31T11:19:36.568Z,2.50
2022-12-31T11:22:02.566Z,2.63
2022-12-31T11:23:52.886Z,2.10
2022-12-31T11:25:34.150Z,3.47
2022-12-31T11:27:30.658Z,2.05
2022-12-31T11:29:20.354Z,3.47
2022-12-31T11:31:19.357Z,3.95
2022-12-31T11:33:15.254Z,1.98
2022-12-31T11:35:09.045Z,3.72
2022-12-31T11:36:44.478Z,2.33
2022-12-31T11:38:26.351Z,4.95
2022-12-31T11:41:54.679Z,2.67
2022-12-31T11:43:28.047Z,2.65
2022-12-31T11:45:12.643Z,2.08
2022-12-31T11:47:14.399Z,3.22
2022-12-31T11:49:16.483Z,3.47
2022-12-31T11:51:02.542Z,2.60
2022-12-31T11:53:05.667Z,2.88
2022-12-31T11:54:53.197Z,2.90
2022-12-31T11:56:28.299Z,1.80
2022-12-31T11:58:09.759Z,3.03
2022-12-31T11:59:41.305Z,2.20
2022-12-31T12:01:19.990Z,2.15
2022-12-31T12:02:54.822Z,3.38
2022-12-31T12:04:26.632Z,2.17
2022-12-31T12:05:59.165Z,3.78
2022-12-31T12:07:32.421Z,2.53
2022-12-31T12:09:07.243Z,2.70
2022-12-31T12:10:52.663Z,2.30
2022-12-31T12:12:24.345Z,2.03
2022-12-31T12:13:56.979Z,1.85
2022-12-31T12:15:35.400Z,3.33
2022-12-31T12:17:21.789Z,3.92
2022-12-31T12:19:04.396Z,2.30
2022-12-31T12:20:40.057Z,2.80
2022-12-31T12:22:14.475Z,2.10
2022-12-31T12:24:05.760Z,2.45
2022-12-31T12:25:40.293Z,2.60
2022-12-31T12:27:23.381Z,2.38
2022-12-31T12:28:55.053Z,2.13
2022-12-31T12:30:28.183Z,2.20
2022-12-31T12:32:15.661Z,1.38
2022-12-31T12:33:48.956Z,2.50
2022-12-31T12:35:26.586Z,2.03
2022-12-31T12:36:58.395Z,1.70
2022-12-31T12:38:30.014Z,1.83
2022-12-31T12:40:21.478Z,1.92
2022-12-31T12:42:19.379Z,3.60
2022-12-31T12:44:03.382Z,2.78
2022-12-31T12:45:51.741Z,2.17
2022-12-31T12:47:25.953Z,2.00
2022-12-31T12:48:58.569Z,2.63
2022-12-31T12:50:42.107Z,2.42
2022-12-31T12:52:32.174Z,1.80
2022-12-31T12:54:25.455Z,2.33
2022-12-31T12:56:38.628Z,3.28
2022-12-31T12:58:45.287Z,3.13
2022-12-31T13:00:25.071Z,3.08
2022-12-31T13:02:15.430Z,2.10
2022-12-31T13:04:32.444Z,2.45
2022-12-31T13:06:01.551Z,2.65
2022-12-31T13:08:05.377Z,2.47
2022-12-31T13:09:42.711Z,2.75
2022-12-31T13:11:29.627Z,2.97
2022-12-31T13:13:22.759Z,2.47
2022-12-31T13:15:42.792Z,2.85
2022-12-31T13:18:01.446Z,2.40
2022-12-31T13:19:33.544Z,2.80
2022-12-31T13:21:32.671Z,2.05
2022-12-31T13:23:16.467Z,2.03
2022-12-31T13:25:06.103Z,1.95
2022-12-31T13:27:11.508Z,2.38
2022-12-31T13:28:45.614Z,2.40
2022-12-31T13:30:20.857Z,2.30
2022-12-31T13:31:55.341Z,3.17
2022-12-31T13:33:39.335Z,3.83
2022-12-31T13:35:23.596Z,2.55
2022-12-31T13:36:58.862Z,1.90
2022-12-31T13:38:44.720Z,2.83
2022-12-31T13:40:44.699Z,2.13
2022-12-31T13:42:35.817Z,2.72
2022-12-31T13:44:29.431Z,2.05
2022-12-31T13:46:42.818Z,4.00
2022-12-31T13:48:20.041Z,2.63
2022-12-31T13:50:03.188Z,2.10
2022-12-31T13:51:46.445Z,2.70
2022-12-31T13:53:36.615Z,1.80
2022-12-31T13:55:19.066Z,2.45
2022-12-31T13:56:52.658Z,2.97
2022-12-31T13:58:35.845Z,2.10
2022-12-31T14:00:20.278Z,2.97
2022-12-31T14:02:02.405Z,2.00
2022-12-31T14:03:39.881Z,2.10
2022-12-31T14:05:11.436Z,1.88
2022-12-31T14:07:00.900Z,1.88
2022-12-31T14:08:32.709Z,1.95
2022-12-31T14:10:15.019Z,1.83
2022-12-31T14:12:01.653Z,2.03
2022-12-31T14:13:52.504Z,1.77
2022-12-31T14:15:37.862Z,2.88
2022-12-31T14:17:12.329Z,2.22
2022-12-31T14:18:52.976Z,3.15
2022-12-31T14:20:39.700Z,2.33
2022-12-31T14:22:16.997Z,3.45
2022-12-31T14:24:21.879Z,12.55
2022-12-31T14:26:00.248Z,5.78
2022-12-31T14:27:43.181Z,5.07
2022-12-31T14:29:45.214Z,4.40
2022-12-31T14:31:49.156Z,7.20
2022-12-31T14:33:23.593Z,6.63
2022-12-31T14:35:29.195Z,5.15
2022-12-31T14:37:17.358Z,4.28
2022-12-31T14:39:02.867Z,7.10
2022-12-31T14:41:01.423Z,3.60
2022-12-31T14:42:43.990Z,4.93
2022-12-31T14:44:27.962Z,4.07
2022-12-31T14:46:13.157Z,3.95
2022-12-31T14:47:51.339Z,6.18
2022-12-31T14:49:32.044Z,6.13
2022-12-31T14:51:04.814Z,4.35
2022-12-31T14:52:51.405Z,4.72
2022-12-31T14:54:36.101Z,3.80
2022-12-31T14:56:29.451Z,4.05
2022-12-31T15:00:01.212Z,7.35
2022-12-31T15:01:33.718Z,3.67
2022-12-31T15:03:05.355Z,4.80
2022-12-31T15:04:44.867Z,3.95
2022-12-31T15:06:37.579Z,3.40
2022-12-31T15:08:36.959Z,5.30
2022-12-31T15:10:14.524Z,4.28
2022-12-31T15:11:46.301Z,4.20
2022-12-31T15:13:24.404Z,4.32
2022-12-31T15:15:15.100Z,3.85
2022-12-31T15:17:14.861Z,5.88
2022-12-31T15:19:04.161Z,3.85
2022-12-31T15:21:04.823Z,3.03
2022-12-31T15:22:39.866Z,3.08
2022-12-31T15:24:30.901Z,2.90
2022-12-31T15:26:04.363Z,2.97
2022-12-31T15:27:38.652Z,3.88
2022-12-31T15:29:25.829Z,3.80
2022-12-31T15:31:06.199Z,2.78
2022-12-31T15:32:46.274Z,4.32
2022-12-31T15:34:32.947Z,3.83
2022-12-31T15:36:20.671Z,3.85
2022-12-31T15:38:23.351Z,4.10
2022-12-31T15:40:17.640Z,3.00
2022-12-31T15:42:35.599Z,4.28
2022-12-31T15:43:52.804Z,5.32
2022-12-31T15:45:37.045Z,5.25
2022-12-31T15:47:32.284Z,6.72
2022-12-31T15:49:15.691Z,4.07
2022-12-31T15:50:51.812Z,4.45
2022-12-31T15:52:36.557Z,4.30
2022-12-31T15:54:20.521Z,3.63
2022-12-31T15:55:54.534Z,4.22
2022-12-31T15:57:37.776Z,3.15
2022-12-31T15:59:13.699Z,4.25
2022-12-31T16:01:03.423Z,4.97
2022-12-31T16:02:35.579Z,5.93
2022-12-31T16:04:14.346Z,4.70
2022-12-31T16:05:46.009Z,4.15
2022-12-31T16:07:18.442Z,3.50
2022-12-31T16:08:50.229Z,3.45
2022-12-31T16:10:26.719Z,16.55
2022-12-31T16:11:59.626Z,16.90
2022-12-31T16:13:35.080Z,16.30
2022-12-31T16:15:08.512Z,12.63
2022-12-31T16:16:55.347Z,9.52
2022-12-31T16:18:40.584Z,8.65
2022-12-31T16:20:32.581Z,6.53
2022-12-31T16:22:17.794Z,5.07
2022-12-31T16:23:50.843Z,6.22
2022-12-31T16:25:32.016Z,5.88
2022-12-31T16:27:12.175Z,5.60
2022-12-31T16:28:48.016Z,4.88
2022-12-31T16:31:53.747Z,7.30
2022-12-31T16:33:26.383Z,6.40
2022-12-31T16:34:57.991Z,7.78
2022-12-31T16:36:29.755Z,6.60
2022-12-31T16:38:11.314Z,11.35
2022-12-31T16:39:58.179Z,13.00
2022-12-31T16:41:41.877Z,17.35
2022-12-31T16:43:36.861Z,12.90
2022-12-31T16:45:38.658Z,14.82
2022-12-31T16:47:17.506Z,13.57
2022-12-31T16:48:54.018Z,17.20
2022-12-31T16:50:26.980Z,22.65
2022-12-31T16:52:04.036Z,25.52
2022-12-31T16:53:38.210Z,31.38
2022-12-31T16:55:16.530Z,30.23
2022-12-31T16:56:48.373Z,32.78
2022-12-31T16:58:28.356Z,21.95
2022-12-31T17:00:04.257Z,28.05
2022-12-31T17:03:15.548Z,24.45
2022-12-31T17:04:55.942Z,27.52
2022-12-31T17:06:32.064Z,22.02
2022-12-31T17:08:24.741Z,23.35
2022-12-31T17:10:08.618Z,22.88
2022-12-31T17:11:53.920Z,24.73
2022-12-31T17:13:32.023Z,24.13
2022-12-31T17:15:06.505Z,22.80
2022-12-31T17:17:03.784Z,22.90
2022-12-31T17:18:38.497Z,24.38
2022-12-31T17:20:23.026Z,17.60
2022-12-31T17:21:54.721Z,14.15
2022-12-31T17:23:31.489Z,15.73
2022-12-31T17:25:29.737Z,13.48
2022-12-31T17:27:09.490Z,14.43
2022-12-31T17:28:49.881Z,14.88
2022-12-31T17:30:30.471Z,11.73
2022-12-31T17:32:06.653Z,13.32
2022-12-31T17:33:38.341Z,11.80
2022-12-31T17:35:43.616Z,12.45
2022-12-31T17:37:41.399Z,20.42
2022-12-31T17:39:17.846Z,20.85
2022-12-31T17:40:54.546Z,22.73
2022-12-31T17:42:32.309Z,19.55
2022-12-31T17:44:04.508Z,17.42
2022-12-31T17:45:37.494Z,16.45
2022-12-31T17:47:13.872Z,18.33
2022-12-31T17:48:51.543Z,25.92
2022-12-31T17:50:25.438Z,28.73
2022-12-31T17:51:57.237Z,29.27
2022-12-31T17:53:29.187Z,29.80
2022-12-31T17:55:00.787Z,32.92
2022-12-31T17:56:32.360Z,29.83
2022-12-31T17:58:06.504Z,29.88
2022-12-31T17:59:38.163Z,22.92
2022-12-31T18:01:13.830Z,26.35
2022-12-31T18:02:45.601Z,32.97
2022-12-31T18:04:19.273Z,30.42
2022-12-31T18:05:51.060Z,33.55
2022-12-31T18:07:22.663Z,35.88
2022-12-31T18:08:54.254Z,36.25
2022-12-31T18:10:28.359Z,34.30
2022-12-31T18:12:02.017Z,35.88
2022-12-31T18:13:33.985Z,48.42
2022-12-31T18:15:06.574Z,41.72
2022-12-31T18:16:38.163Z,47.00
2022-12-31T18:18:25.930Z,33.65
2022-12-31T18:20:06.349Z,31.98
2022-12-31T18:21:38.356Z,27.05
2022-12-31T18:23:22.694Z,22.13
2022-12-31T18:24:54.525Z,19.98
2022-12-31T18:26:26.680Z,17.50
2022-12-31T18:27:58.808Z,19.33
2022-12-31T18:29:30.419Z,15.75
2022-12-31T18:31:02.903Z,16.52
2022-12-31T18:32:34.727Z,17.90
2022-12-31T18:34:06.647Z,17.10
2022-12-31T18:36:07.799Z,14.30
2022-12-31T18:37:33.464Z,18.40
2022-12-31T18:39:05.071Z,16.00
2022-12-31T18:40:39.737Z,14.80
2022-12-31T18:42:13.445Z,12.20
2022-12-31T18:43:45.971Z,12.05
2022-12-31T18:45:19.541Z,12.02
2022-12-31T18:46:51.439Z,17.08
2022-12-31T18:48:26.729Z,17.15
2022-12-31T18:49:58.441Z,13.30
2022-12-31T18:51:32.487Z,15.02
2022-12-31T18:53:04.300Z,22.05
2022-12-31T18:54:35.889Z,23.70
2022-12-31T18:56:15.233Z,29.23
2022-12-31T18:57:46.924Z,29.58
2022-12-31T18:59:18.512Z,26.98
2022-12-31T19:00:51.270Z,27.92
2022-12-31T19:02:22.985Z,31.17
2022-12-31T19:04:00.768Z,27.90
2022-12-31T19:05:34.404Z,25.05
2022-12-31T19:07:06.006Z,28.15
2022-12-31T19:08:37.551Z,24.95
2022-12-31T19:10:09.233Z,30.73
2022-12-31T19:11:42.249Z,30.63
2022-12-31T19:13:15.897Z,34.88
2022-12-31T19:14:47.453Z,24.77
2022-12-31T19:16:19.186Z,26.30
2022-12-31T19:17:50.845Z,30.13
2022-12-31T19:19:22.397Z,29.50
2022-12-31T19:20:53.921Z,36.92
2022-12-31T19:22:25.525Z,37.33
2022-12-31T19:23:57.139Z,36.58
2022-12-31T19:25:33.870Z,39.28
2022-12-31T19:27:05.580Z,36.80
2022-12-31T19:28:37.114Z,35.50
2022-12-31T19:30:32.691Z,32.42
2022-12-31T19:32:04.659Z,34.53
2022-12-31T19:33:36.355Z,29.80
2022-12-31T19:35:11.484Z,37.58
2022-12-31T19:36:44.218Z,35.03
2022-12-31T19:38:24.934Z,33.30
2022-12-31T19:39:56.525Z,36.13
2022-12-31T19:41:28.193Z,33.00
2022-12-31T19:42:59.781Z,38.97
2022-12-31T19:44:31.350Z,38.92
2022-12-31T19:46:03.826Z,34.53
2022-12-31T19:47:35.415Z,41.22
2022-12-31T19:49:07.003Z,32.55
2022-12-31T19:50:42.684Z,36.40
2022-12-31T19:52:14.259Z,29.05
2022-12-31T19:53:47.208Z,27.73
2022-12-31T19:55:21.607Z,24.17
2022-12-31T19:56:53.235Z,30.20
2022-12-31T19:58:26.660Z,27.33
2022-12-31T19:59:58.252Z,29.00
2022-12-31T20:01:30.077Z,25.58
2022-12-31T20:03:01.937Z,28.00
2022-12-31T20:04:33.752Z,30.30
2022-12-31T20:06:08.468Z,29.92
2022-12-31T20:07:40.028Z,28.63
2022-12-31T20:09:11.775Z,29.27
2022-12-31T20:10:43.805Z,29.48
2022-12-31T20:12:15.378Z,48.20
2022-12-31T20:13:47.930Z,45.00
2022-12-31T20:15:19.502Z,152.93
2022-12-31T20:16:52.479Z,100.30
2022-12-31T20:18:24.260Z,85.20
2022-12-31T20:19:55.805Z,101.75
2022-12-31T20:21:28.836Z,55.85
2022-12-31T20:23:00.415Z,94.78
2022-12-31T20:24:32.062Z,80.40
2022-12-31T20:26:03.855Z,66.57
2022-12-31T20:27:35.707Z,75.20
2022-12-31T20:29:07.307Z,74.30
2022-12-31T20:30:38.976Z,61.30
2022-12-31T20:32:10.560Z,60.60
2022-12-31T20:33:42.809Z,57.40
2022-12-31T20:35:14.458Z,62.30
2022-12-31T20:36:46.063Z,58.47
2022-12-31T20:38:17.696Z,61.88
2022-12-31T20:39:49.311Z,65.75
2022-12-31T20:41:22.668Z,79.00
2022-12-31T20:42:54.356Z,74.28
2022-12-31T20:44:25.891Z,67.15
2022-12-31T20:45:57.702Z,71.28
2022-12-31T20:47:29.330Z,67.88
2022-12-31T20:49:03.365Z,69.40
2022-12-31T20:50:35.175Z,73.00
2022-12-31T20:52:06.770Z,76.63
2022-12-31T20:53:38.407Z,71.95
2022-12-31T20:55:17.972Z,74.03
2022-12-31T20:56:49.567Z,77.75
2022-12-31T20:58:21.334Z,73.43
2022-12-31T20:59:52.936Z,73.75
2022-12-31T21:01:26.239Z,70.95
2022-12-31T21:03:14.388Z,75.22
2022-12-31T21:04:52.698Z,84.72
2022-12-31T21:06:24.593Z,78.47
2022-12-31T21:07:56.200Z,97.18
2022-12-31T21:09:27.763Z,104.00
2022-12-31T21:10:59.469Z,103.57
2022-12-31T21:12:53.001Z,107.10
2022-12-31T21:14:24.686Z,123.22
2022-12-31T21:15:56.302Z,124.53
2022-12-31T21:17:28.682Z,131.60
2022-12-31T21:19:01.255Z,123.50
2022-12-31T21:20:32.874Z,125.78
2022-12-31T21:22:04.569Z,110.15
2022-12-31T21:23:36.147Z,121.15
2022-12-31T21:25:08.006Z,128.70
2022-12-31T21:26:39.667Z,121.50
2022-12-31T21:28:12.284Z,128.23
2022-12-31T21:30:16.347Z,119.40
2022-12-31T21:31:35.457Z,129.07
2022-12-31T21:33:07.904Z,121.75
2022-12-31T21:34:39.410Z,113.85
2022-12-31T21:36:11.436Z,110.47
2022-12-31T21:37:58.657Z,116.32
2022-12-31T21:39:32.414Z,116.75
2022-12-31T21:41:06.416Z,127.78
2022-12-31T21:42:38.015Z,118.82
2022-12-31T21:44:09.612Z,129.32
2022-12-31T21:45:41.729Z,127.45
2022-12-31T21:47:38.602Z,128.95
2022-12-31T21:49:12.833Z,121.97
2022-12-31T21:50:46.036Z,123.07
2022-12-31T21:52:26.574Z,128.40
2022-12-31T21:53:58.455Z,121.65
2022-12-31T21:55:48.742Z,143.05